الصفحة الرئيسية
METAR-TAF:

METAR-TAF

مطار :

بونير, جزر الأنتيل الهولندية

دائرة عرض: 12-09N, خط طول: 068-17W, ارتفاع: 6 متر

مراقبة الطقس الحالي

تاريخ ووقت الإصدار 1ساعة و 5 دقيقة قبل الساعة 16:55UTC
ريح 13 عقدة من الشرق, الاتجاه يتراوح بين الشمال الشرقي و الجنوب الشرقي
درجة الحرارة 31°درجة مئوية
الرطوبة 63%
ضغط 1014 hPa
الرؤية 10 كم أو أكثر
غيوم مفككة على ارتفاع 2400 قدم
غيوم مفككة على ارتفاع 2900 قدم
غيوم مفككة على ارتفاع 3300 قدم

METAR: TNCB 041655Z 09013KT 050V130 9999 BKN024 BKN029 BKN033 31/23 Q1014

زمن: 14:00 (18:00 UTC)

توقعات

تاريخ ووقت الإصدار 57 دقيقة قبل الساعة 17:03UTC
التوقعات صالحة من04 الساعة 18 UTC إلى 05 الساعة 24 UTC
ريح 13 عقدة من الشرق
الرؤية 10 كم أو أكثر
غيوم متفرقة على ارتفاع 2200 قدم
نظرية الاحتمالات 30% :
مؤقت
من 05 الساعة 06 UTC إلى 05 الساعة 12 UTC
الرؤية: 6000 متر
غيوم قليلة على ارتفاع 2000 قدم, مزنة ركامية.
زخات من المطر,

TAF: TNCB 041703Z 0418/0524 08013KT 9999 SCT022 PROB30 TEMPO 0506/0512 6000 SHRA FEW020CB

أرصاد الطقس والتوقعات من أكثر من 4000 مطار (تقارير الطقس للمطار METAR والتنبؤ بالطقس بالمطارTAF).

المحطات المتاحة هي النقط الصفراء والحمراء على الخريطة.

حرك المؤشر فوق النقطة لمعرفة اسم المحطة.

ثم انقر لمعرفة أرصاد وتوقعات الطقس.

لتغيير الخارطة: اضغط على الأزرار الخضراء مع رمز الصليب الأسود للتكبير. على الزر الأخضر مع شرطة للتصغير، أو على الأسهم الخضراء للخرائط المجاورة.


METAR-TAF: